Time;durP1;ratioP1;P1;durP2;ratioP2;P2;SDS_P1;SDS_P2;PMS_P1;PMS_P2;Temp;Humidity;BMP_temperature;BMP_pressure;BME280_temperature;BME280_humidity;BME280_pressure;Samples;Min_cycle;Max_cycle;Signal;HPM_P1;HPM_P2
2022/10/13 00:01:26;;;;;;;29.63;18.90;;;20.70;59.90;;;;;;5009766;28;20022;-73
2022/10/13 00:03:52;;;;;;;26.17;18.88;;;20.70;60.00;;;;;;5008957;28;20057;-74
2022/10/13 00:06:24;;;;;;;31.00;20.27;;;20.70;59.90;;;;;;5010467;28;20529;-74
2022/10/13 00:08:50;;;;;;;24.98;18.60;;;20.60;59.90;;;;;;4977072;28;20137;-73
2022/10/13 00:11:21;;;;;;;25.30;18.92;;;20.60;60.00;;;;;;4993047;28;20109;-75
2022/10/13 00:13:48;;;;;;;25.63;17.85;;;20.70;60.10;;;;;;5010137;28;20095;-74
2022/10/13 00:16:16;;;;;;;24.85;17.83;;;20.60;59.90;;;;;;4975331;28;20095;-74
2022/10/13 00:18:42;;;;;;;25.70;18.15;;;20.60;60.10;;;;;;5008601;28;20037;-72
2022/10/13 00:21:10;;;;;;;27.67;17.05;;;20.60;60.10;;;;;;4993806;28;20402;-74
2022/10/13 00:23:37;;;;;;;23.65;17.23;;;20.70;60.10;;;;;;4993208;28;20091;-74
2022/10/13 00:26:05;;;;;;;25.02;16.30;;;20.60;60.40;;;;;;5008401;28;20030;-74
2022/10/13 00:28:32;;;;;;;22.88;16.67;;;20.60;60.20;;;;;;5009331;28;20046;-73
2022/10/13 00:30:58;;;;;;;22.67;15.32;;;20.60;60.30;;;;;;5010269;28;20034;-74
2022/10/13 00:33:24;;;;;;;21.80;15.23;;;20.60;60.30;;;;;;5011427;28;20033;-73
2022/10/13 00:35:49;;;;;;;30.08;15.98;;;20.60;60.80;;;;;;4994278;28;20033;-77
2022/10/13 00:38:18;;;;;;;19.23;10.85;;;20.60;60.10;;;;;;5011287;28;20033;-78
2022/10/13 00:40:53;;;;;;;20.40;7.03;;;20.50;53.90;;;;;;5011511;28;20022;-78
2022/10/13 00:43:22;;;;;;;14.65;6.72;;;20.20;51.30;;;;;;4975415;28;20037;-77
2022/10/13 00:45:49;;;;;;;17.45;7.65;;;20.00;51.30;;;;;;4995221;28;20038;-73
2022/10/13 00:48:18;;;;;;;18.40;9.68;;;20.00;50.90;;;;;;5012422;28;20036;-78
2022/10/13 00:50:44;;;;;;;56.47;38.85;;;20.00;51.60;;;;;;5009481;28;20069;-76
2022/10/13 00:53:11;;;;;;;57.47;37.50;;;19.90;50.60;;;;;;4993380;28;20025;-74
2022/10/13 00:55:41;;;;;;;47.90;31.20;;;19.90;51.30;;;;;;4996454;28;20305;-72
2022/10/13 00:58:11;;;;;;;43.75;27.15;;;20.10;52.20;;;;;;5011429;28;20074;-73
2022/10/13 01:00:37;;;;;;;40.70;26.70;;;20.10;52.80;;;;;;5011441;28;20509;-72
2022/10/13 01:03:03;;;;;;;40.83;26.10;;;20.20;53.20;;;;;;4993501;28;20033;-73
2022/10/13 01:05:29;;;;;;;34.63;24.25;;;20.20;53.20;;;;;;5009537;28;20059;-73
2022/10/13 01:07:56;;;;;;;40.38;24.10;;;20.20;53.30;;;;;;5009748;28;20121;-73
2022/10/13 01:10:51;;;;;;;42.15;25.98;;;20.30;53.70;;;;;;4993940;28;20025;-73
2022/10/13 01:13:50;;;;;;;43.95;23.80;;;20.30;53.90;;;;;;5003225;28;20092;-73
2022/10/13 01:16:38;;;;;;;39.20;23.10;;;20.30;54.20;;;;;;5009371;28;20030;-73
2022/10/13 01:19:38;;;;;;;43.78;24.23;;;20.30;54.50;;;;;;4997137;28;20053;-73
2022/10/13 01:22:22;;;;;;;37.00;22.58;;;20.40;54.70;;;;;;5009338;28;20444;-73
2022/10/13 01:24:56;;;;;;;32.90;22.65;;;20.30;54.90;;;;;;5012155;28;20026;-72
2022/10/13 01:27:44;;;;;;;36.15;22.58;;;20.40;55.20;;;;;;4993613;28;20490;-72
2022/10/13 01:30:18;;;;;;;38.33;22.27;;;20.40;55.40;;;;;;5009871;28;20524;-73
2022/10/13 01:33:28;;;;;;;37.70;22.42;;;20.30;55.50;;;;;;5008712;28;20058;-73
2022/10/13 01:36:12;;;;;;;34.85;21.67;;;20.40;55.70;;;;;;5004919;28;20145;-74
2022/10/13 01:38:51;;;;;;;34.72;21.42;;;20.30;55.90;;;;;;5010726;28;20105;-72
2022/10/13 01:41:24;;;;;;;31.00;20.83;;;20.40;56.00;;;;;;5005521;28;20121;-73
2022/10/13 01:44:01;;;;;;;38.58;21.45;;;20.40;56.20;;;;;;5010511;28;20030;-73
2022/10/13 01:46:31;;;;;;;34.28;21.58;;;20.40;56.30;;;;;;5011103;28;20437;-73
2022/10/13 01:49:00;;;;;;;31.67;20.25;;;20.40;56.50;;;;;;5010294;28;20041;-73
2022/10/13 01:51:28;;;;;;;37.03;20.23;;;20.30;56.60;;;;;;5014004;28;20026;-73
2022/10/13 01:53:54;;;;;;;33.15;20.10;;;20.30;56.60;;;;;;5013388;28;20038;-73
2022/10/13 01:56:20;;;;;;;32.67;19.90;;;20.40;56.60;;;;;;5014159;28;20117;-73
2022/10/13 01:58:48;;;;;;;31.40;20.35;;;20.40;57.50;;;;;;4993875;28;20097;-73
2022/10/13 02:01:17;;;;;;;27.30;19.15;;;20.40;56.90;;;;;;4991886;28;20474;-73
2022/10/13 02:04:07;;;;;;;34.58;20.42;;;20.40;57.00;;;;;;4997577;28;20057;-73
2022/10/13 02:06:46;;;;;;;30.80;20.17;;;20.40;57.20;;;;;;5019828;28;20034;-73
2022/10/13 02:09:31;;;;;;;29.80;19.48;;;20.40;57.20;;;;;;5015042;28;20034;-73
2022/10/13 02:12:17;;;;;;;29.65;18.70;;;20.40;57.20;;;;;;5015078;28;20451;-73
2022/10/13 02:14:45;;;;;;;30.33;19.17;;;20.40;57.30;;;;;;5006904;28;20033;-73
2022/10/13 02:17:12;;;;;;;34.10;19.13;;;20.40;57.40;;;;;;5012526;28;20026;-73
2022/10/13 02:19:41;;;;;;;27.77;18.75;;;20.40;57.60;;;;;;5013964;28;20457;-73
2022/10/13 02:22:10;;;;;;;27.13;18.48;;;20.40;57.70;;;;;;5014635;28;20022;-73
2022/10/13 02:24:36;;;;;;;28.17;17.73;;;20.40;57.70;;;;;;5010113;28;20033;-73
2022/10/13 02:27:04;;;;;;;25.17;17.52;;;20.40;57.80;;;;;;5013015;28;20026;-73
2022/10/13 02:29:30;;;;;;;28.08;18.58;;;20.40;57.90;;;;;;4997209;28;20553;-73
2022/10/13 02:31:56;;;;;;;30.52;18.35;;;20.40;57.90;;;;;;5015025;28;20114;-74
2022/10/13 02:34:22;;;;;;;28.17;18.17;;;20.40;58.10;;;;;;5014270;28;20088;-73
2022/10/13 02:36:48;;;;;;;30.05;18.65;;;20.40;57.70;;;;;;5014287;28;20029;-73
2022/10/13 02:39:13;;;;;;;26.85;17.35;;;20.40;58.20;;;;;;5014408;28;20080;-73
2022/10/13 02:41:39;;;;;;;25.65;17.23;;;20.40;58.20;;;;;;5014612;28;20584;-73
2022/10/13 02:44:05;;;;;;;26.55;17.15;;;20.40;58.00;;;;;;5014363;28;20388;-73
2022/10/13 02:46:40;;;;;;;26.42;17.40;;;20.40;58.10;;;;;;5014268;28;20029;-73
2022/10/13 02:49:06;;;;;;;27.40;17.48;;;20.40;58.30;;;;;;5014499;28;20505;-73
2022/10/13 02:51:31;;;;;;;25.13;16.65;;;20.40;58.30;;;;;;5014189;28;20022;-73
2022/10/13 02:53:57;;;;;;;26.02;16.48;;;20.40;58.70;;;;;;5014136;28;20517;-73
2022/10/13 02:56:23;;;;;;;27.40;16.13;;;20.40;58.60;;;;;;5013951;28;20378;-73
2022/10/13 02:58:49;;;;;;;25.00;16.02;;;20.40;58.60;;;;;;5014256;28;20048;-72
2022/10/13 03:01:15;;;;;;;23.63;15.30;;;20.40;58.80;;;;;;5013217;28;20025;-73
2022/10/13 03:03:41;;;;;;;25.30;15.68;;;20.40;58.90;;;;;;4996561;28;20092;-73
2022/10/13 03:06:07;;;;;;;28.05;16.67;;;20.40;58.70;;;;;;5013578;28;20054;-73
2022/10/13 03:08:34;;;;;;;24.88;16.60;;;20.40;58.70;;;;;;5013915;28;20022;-73
2022/10/13 03:11:00;;;;;;;23.67;16.52;;;20.40;58.90;;;;;;5013957;28;20026;-73
2022/10/13 03:13:26;;;;;;;23.73;15.68;;;20.40;58.90;;;;;;5013983;28;20474;-73
2022/10/13 03:15:51;;;;;;;23.08;15.23;;;20.40;58.80;;;;;;5013549;28;20037;-74
2022/10/13 03:18:17;;;;;;;24.48;15.38;;;20.40;58.90;;;;;;4996356;28;20038;-73
2022/10/13 03:20:43;;;;;;;22.55;14.65;;;20.40;58.90;;;;;;5013516;28;20060;-73
2022/10/13 03:23:09;;;;;;;24.08;15.57;;;20.40;58.60;;;;;;5012672;28;20025;-73
2022/10/13 03:25:35;;;;;;;22.05;14.55;;;20.40;59.00;;;;;;5013320;28;20025;-73
2022/10/13 03:28:01;;;;;;;24.00;15.15;;;20.40;58.90;;;;;;5011319;28;20034;-73
2022/10/13 03:30:27;;;;;;;23.13;15.75;;;20.40;58.80;;;;;;5010623;28;20025;-73
2022/10/13 03:32:53;;;;;;;23.38;15.23;;;20.40;58.80;;;;;;5011805;28;20107;-73
2022/10/13 03:35:18;;;;;;;23.65;15.20;;;20.40;59.10;;;;;;5012140;28;20544;-73
2022/10/13 03:37:44;;;;;;;24.02;15.35;;;20.40;58.80;;;;;;5012509;28;20030;-73
2022/10/13 03:40:11;;;;;;;27.58;15.50;;;20.40;59.10;;;;;;5010106;28;20018;-73
2022/10/13 03:42:38;;;;;;;21.80;14.32;;;20.40;58.90;;;;;;5012366;28;20034;-73
2022/10/13 03:45:05;;;;;;;22.10;14.68;;;20.40;58.80;;;;;;5012426;28;20030;-74
2022/10/13 03:47:35;;;;;;;23.98;14.13;;;20.40;58.70;;;;;;5011338;28;20030;-73
2022/10/13 03:50:02;;;;;;;23.50;13.77;;;20.40;58.70;;;;;;4994870;28;20046;-73
2022/10/13 03:52:28;;;;;;;21.65;14.07;;;20.40;58.60;;;;;;5009955;28;20057;-72
2022/10/13 03:54:54;;;;;;;21.00;13.50;;;20.40;58.70;;;;;;5009692;28;20038;-72
2022/10/13 03:57:20;;;;;;;22.10;13.25;;;20.40;58.80;;;;;;5010680;28;20386;-72
2022/10/13 03:59:46;;;;;;;25.17;13.48;;;20.50;58.90;;;;;;5014213;28;20390;-72
2022/10/13 04:02:11;;;;;;;21.38;13.70;;;20.50;58.90;;;;;;5005021;28;20129;-73
2022/10/13 04:04:38;;;;;;;21.17;13.52;;;20.50;58.80;;;;;;5008429;28;20018;-72
2022/10/13 04:07:05;;;;;;;21.92;13.65;;;20.40;58.70;;;;;;5010450;28;20517;-73
2022/10/13 04:09:31;;;;;;;21.35;13.25;;;20.40;58.70;;;;;;5011497;28;20025;-72
2022/10/13 04:11:57;;;;;;;19.90;13.43;;;20.50;58.80;;;;;;4993791;28;20441;-73
2022/10/13 04:14:22;;;;;;;23.73;13.50;;;20.40;58.80;;;;;;5011881;28;20034;-72
2022/10/13 04:16:48;;;;;;;22.00;13.85;;;20.40;58.70;;;;;;4993256;28;20030;-73
2022/10/13 04:19:14;;;;;;;19.70;12.93;;;20.40;58.80;;;;;;5010271;28;20037;-73
2022/10/13 04:21:41;;;;;;;19.83;12.95;;;20.40;58.90;;;;;;5012123;28;20363;-72
2022/10/13 04:24:08;;;;;;;18.83;12.45;;;20.40;58.80;;;;;;5010485;28;20030;-72
2022/10/13 04:26:35;;;;;;;21.90;13.00;;;20.40;58.80;;;;;;4993837;28;20053;-72
2022/10/13 04:29:11;;;;;;;21.52;13.40;;;20.40;58.80;;;;;;5011437;28;20481;-72
2022/10/13 04:31:38;;;;;;;22.17;12.15;;;20.40;58.90;;;;;;5010773;28;20500;-72
2022/10/13 04:34:04;;;;;;;18.80;12.90;;;20.40;59.50;;;;;;5011512;28;20040;-73
2022/10/13 04:36:30;;;;;;;19.08;12.60;;;20.40;59.00;;;;;;4993398;28;20029;-73
2022/10/13 04:38:56;;;;;;;21.20;12.68;;;20.40;58.90;;;;;;5011430;28;20087;-73
2022/10/13 04:41:22;;;;;;;20.42;12.75;;;20.40;59.50;;;;;;5009980;28;20603;-72
2022/10/13 04:43:52;;;;;;;20.52;12.63;;;20.40;58.90;;;;;;5011342;28;20061;-72
2022/10/13 04:46:22;;;;;;;20.85;12.32;;;20.40;58.80;;;;;;5010420;28;20021;-72
2022/10/13 04:48:48;;;;;;;20.17;12.85;;;20.40;58.90;;;;;;5011550;28;20442;-73
2022/10/13 04:51:16;;;;;;;19.85;12.10;;;20.40;58.90;;;;;;4994346;28;20109;-72
2022/10/13 04:53:42;;;;;;;19.98;12.23;;;20.40;59.00;;;;;;4993599;28;20042;-72
2022/10/13 04:56:15;;;;;;;16.17;11.60;;;20.40;59.00;;;;;;5010647;28;20022;-72
2022/10/13 04:58:43;;;;;;;19.95;12.15;;;20.40;59.10;;;;;;5008892;28;20018;-72
2022/10/13 05:01:13;;;;;;;19.20;11.98;;;20.40;59.10;;;;;;5002672;28;20030;-73
2022/10/13 05:03:39;;;;;;;19.08;12.23;;;20.40;59.10;;;;;;5001857;28;20030;-73
2022/10/13 05:06:05;;;;;;;17.70;11.35;;;20.40;59.00;;;;;;5005114;28;20026;-73
2022/10/13 05:08:32;;;;;;;18.52;12.10;;;20.40;59.00;;;;;;5010216;28;20148;-73
2022/10/13 05:11:00;;;;;;;18.75;12.32;;;20.40;59.10;;;;;;5009564;28;20030;-72
2022/10/13 05:13:28;;;;;;;17.80;11.35;;;20.40;59.20;;;;;;4993014;28;20037;-73
2022/10/13 05:15:56;;;;;;;21.60;12.10;;;20.40;59.10;;;;;;5008887;28;20034;-73
2022/10/13 05:18:22;;;;;;;16.25;11.02;;;20.40;59.10;;;;;;5011437;28;20037;-73
2022/10/13 05:20:48;;;;;;;20.15;11.45;;;20.40;59.10;;;;;;5009459;28;20030;-73
2022/10/13 05:23:14;;;;;;;16.80;11.07;;;20.40;59.00;;;;;;5010913;28;20022;-72
2022/10/13 05:25:40;;;;;;;19.33;11.05;;;20.40;59.10;;;;;;5010915;28;20157;-72
2022/10/13 05:28:09;;;;;;;19.58;12.13;;;20.40;59.10;;;;;;5007827;28;20033;-73
2022/10/13 05:30:35;;;;;;;20.25;12.23;;;20.40;59.00;;;;;;4971420;28;20072;-73
2022/10/13 05:33:01;;;;;;;19.02;11.77;;;20.40;59.50;;;;;;5008917;28;20030;-76
2022/10/13 05:35:27;;;;;;;18.73;11.18;;;20.40;60.00;;;;;;5006327;28;20508;-73
2022/10/13 05:37:53;;;;;;;21.60;11.85;;;20.40;59.60;;;;;;5008700;28;20040;-73
2022/10/13 05:40:21;;;;;;;27.98;11.75;;;20.50;59.60;;;;;;5010698;28;20022;-73
2022/10/13 05:42:50;;;;;;;22.02;11.57;;;20.40;59.60;;;;;;5011279;28;20410;-73
2022/10/13 05:45:17;;;;;;;28.95;11.98;;;20.40;59.70;;;;;;5007678;28;20022;-73
2022/10/13 05:47:43;;;;;;;21.33;11.63;;;20.40;60.00;;;;;;5010004;28;20481;-73
2022/10/13 05:50:09;;;;;;;17.73;11.13;;;20.40;60.30;;;;;;5010220;28;20040;-73
2022/10/13 05:52:39;;;;;;;23.77;11.32;;;20.40;60.40;;;;;;5008923;28;20474;-72
2022/10/13 05:55:09;;;;;;;16.92;11.13;;;20.40;60.20;;;;;;5009736;28;20034;-73
2022/10/13 05:57:48;;;;;;;19.63;10.88;;;20.40;60.10;;;;;;5010629;28;20311;-72
2022/10/13 06:00:16;;;;;;;19.15;10.52;;;20.40;60.20;;;;;;4999233;28;20021;-73
2022/10/13 06:02:57;;;;;;;16.00;10.52;;;20.40;60.80;;;;;;5004182;28;20030;-73
2022/10/13 06:05:24;;;;;;;16.98;10.75;;;20.40;60.10;;;;;;4997663;28;20022;-73
2022/10/13 06:07:53;;;;;;;18.65;10.93;;;20.40;60.20;;;;;;4992516;28;20482;-73
2022/10/13 06:10:19;;;;;;;19.77;11.70;;;20.40;60.20;;;;;;5009956;28;20018;-73
2022/10/13 06:12:45;;;;;;;16.92;10.40;;;20.40;60.20;;;;;;4993702;28;20026;-73
2022/10/13 06:15:11;;;;;;;19.23;11.55;;;20.40;60.10;;;;;;5008044;28;20030;-72
2022/10/13 06:17:38;;;;;;;17.30;10.88;;;20.40;60.30;;;;;;4993348;28;20080;-74
2022/10/13 06:20:05;;;;;;;19.25;10.85;;;20.40;60.70;;;;;;5009267;28;20045;-73
2022/10/13 06:22:32;;;;;;;18.10;10.65;;;20.30;60.30;;;;;;4990663;28;20030;-74
2022/10/13 06:24:58;;;;;;;20.10;10.35;;;20.30;60.50;;;;;;5008207;28;20022;-73
2022/10/13 06:27:24;;;;;;;17.58;10.35;;;20.40;60.40;;;;;;5009423;28;20103;-74
2022/10/13 06:29:52;;;;;;;18.17;11.13;;;20.40;60.20;;;;;;4993445;28;20033;-74
2022/10/13 06:32:18;;;;;;;18.58;10.02;;;20.40;60.40;;;;;;4992471;28;20030;-74
2022/10/13 06:34:44;;;;;;;17.80;10.77;;;20.40;60.20;;;;;;5009940;28;20108;-74
2022/10/13 06:37:09;;;;;;;17.23;10.88;;;20.40;61.30;;;;;;5012297;28;20486;-74
2022/10/13 06:39:35;;;;;;;16.98;10.68;;;20.40;60.00;;;;;;4995370;28;20030;-74
2022/10/13 06:42:03;;;;;;;15.55;9.93;;;20.40;60.20;;;;;;5012602;28;20017;-73
2022/10/13 06:44:32;;;;;;;16.20;9.93;;;20.40;60.10;;;;;;4996097;28;20113;-74
2022/10/13 06:47:03;;;;;;;18.83;10.70;;;20.40;60.00;;;;;;5010527;28;20041;-74
2022/10/13 06:49:29;;;;;;;16.48;10.32;;;20.40;59.90;;;;;;5013287;28;20026;-74
2022/10/13 06:51:54;;;;;;;17.60;10.70;;;20.40;59.90;;;;;;5013151;28;20026;-74
2022/10/13 06:54:21;;;;;;;17.58;10.50;;;20.40;60.40;;;;;;5013144;28;20149;-74
2022/10/13 06:56:46;;;;;;;16.45;10.10;;;20.40;60.60;;;;;;5010994;28;20053;-74
2022/10/13 06:59:13;;;;;;;16.85;9.80;;;20.40;60.20;;;;;;5013926;28;20486;-74
2022/10/13 07:01:39;;;;;;;19.75;10.60;;;20.40;60.70;;;;;;5011727;28;20036;-74
2022/10/13 07:04:08;;;;;;;16.98;10.32;;;20.40;59.80;;;;;;5011431;28;20030;-73
2022/10/13 07:06:33;;;;;;;16.40;10.05;;;20.40;59.90;;;;;;5011120;28;20061;-73
2022/10/13 07:09:05;;;;;;;16.42;10.30;;;20.40;60.00;;;;;;5013717;28;20050;-74
2022/10/13 07:11:31;;;;;;;18.50;9.43;;;20.40;60.00;;;;;;5011445;28;20034;-73
2022/10/13 07:13:58;;;;;;;20.33;10.35;;;20.50;60.50;;;;;;5013508;28;20057;-72
2022/10/13 07:16:24;;;;;;;23.95;10.45;;;20.50;61.40;;;;;;4994629;28;20038;-73
2022/10/13 07:18:50;;;;;;;19.65;10.40;;;20.50;60.60;;;;;;5013850;28;20022;-73
2022/10/13 07:21:16;;;;;;;22.25;10.35;;;20.50;61.00;;;;;;5012807;28;20080;-73
2022/10/13 07:23:41;;;;;;;22.67;9.93;;;20.50;60.70;;;;;;5013777;28;20033;-73
2022/10/13 07:26:10;;;;;;;18.98;10.25;;;20.50;61.00;;;;;;5009193;28;20474;-73
2022/10/13 07:28:36;;;;;;;18.63;10.02;;;20.50;61.40;;;;;;5013266;28;20058;-73
2022/10/13 07:31:09;;;;;;;24.10;10.65;;;20.40;61.80;;;;;;5011319;28;20030;-73
2022/10/13 07:33:36;;;;;;;33.88;10.05;;;20.50;62.10;;;;;;4995222;28;20017;-73
2022/10/13 07:36:04;;;;;;;22.92;9.85;;;20.50;62.30;;;;;;4990741;28;20038;-73
2022/10/13 07:38:29;;;;;;;19.63;9.60;;;20.40;61.50;;;;;;5003860;28;20076;-72
2022/10/13 07:40:55;;;;;;;20.38;10.27;;;20.50;61.70;;;;;;5007949;28;20026;-72
2022/10/13 07:43:21;;;;;;;24.83;11.90;;;20.40;62.90;;;;;;4995889;28;20069;-73
2022/10/13 07:45:46;;;;;;;19.77;10.05;;;20.50;64.20;;;;;;5010570;28;20037;-73
2022/10/13 07:48:12;;;;;;;22.95;11.05;;;20.60;63.10;;;;;;5010089;28;20378;-74
2022/10/13 07:50:38;;;;;;;25.85;10.98;;;20.60;64.10;;;;;;4994388;28;20030;-73
2022/10/13 07:53:04;;;;;;;20.73;10.95;;;20.60;63.30;;;;;;4979004;28;20053;-73
2022/10/13 07:55:30;;;;;;;24.77;11.10;;;20.60;63.40;;;;;;4994859;28;20513;-73
2022/10/13 07:57:55;;;;;;;21.15;12.05;;;20.60;63.50;;;;;;4979167;28;20034;-72
2022/10/13 08:00:21;;;;;;;25.65;11.88;;;20.60;64.00;;;;;;5013207;28;20021;-72
2022/10/13 08:02:50;;;;;;;19.52;11.02;;;20.60;64.90;;;;;;4995330;28;20018;-73
2022/10/13 08:05:16;;;;;;;22.10;10.20;;;20.60;65.20;;;;;;4995510;28;20435;-73
2022/10/13 08:07:42;;;;;;;23.85;10.07;;;20.60;64.20;;;;;;5012864;28;20116;-73
2022/10/13 08:10:08;;;;;;;21.10;10.98;;;20.60;64.10;;;;;;4995254;28;20109;-73
2022/10/13 08:12:37;;;;;;;21.90;10.93;;;20.60;64.10;;;;;;4995029;28;20084;-73
2022/10/13 08:15:05;;;;;;;19.00;10.75;;;20.70;63.40;;;;;;5012036;28;20445;-72
2022/10/13 08:17:31;;;;;;;17.05;10.52;;;20.60;63.20;;;;;;5009354;28;20032;-73
2022/10/13 08:19:57;;;;;;;19.80;10.02;;;20.60;64.40;;;;;;4983735;28;20409;-74
2022/10/13 08:22:26;;;;;;;21.10;10.95;;;20.60;64.60;;;;;;5023158;23;20073;-72
2022/10/13 08:24:52;;;;;;;19.77;10.57;;;20.60;64.10;;;;;;5008057;28;20025;-72
2022/10/13 08:27:21;;;;;;;20.08;10.98;;;20.60;64.50;;;;;;5009157;28;20033;-71
2022/10/13 08:29:47;;;;;;;23.10;10.75;;;20.70;64.50;;;;;;5016435;28;20041;-72
2022/10/13 08:32:13;;;;;;;20.85;10.32;;;20.70;65.10;;;;;;5014858;28;20429;-73
2022/10/13 08:34:39;;;;;;;19.75;10.93;;;20.70;64.60;;;;;;4994346;28;20053;-72
2022/10/13 08:37:04;;;;;;;24.25;11.70;;;20.70;65.70;;;;;;5011165;28;20116;-73
2022/10/13 08:39:30;;;;;;;23.77;11.35;;;20.70;66.50;;;;;;5011603;28;20045;-72
2022/10/13 08:41:57;;;;;;;18.45;10.38;;;20.70;67.90;;;;;;5012334;28;20029;-72
2022/10/13 08:44:39;;;;;;;22.83;10.73;;;20.70;68.20;;;;;;5012083;28;20030;-72
2022/10/13 08:47:44;;;;;;;20.08;11.10;;;20.80;67.70;;;;;;5012098;28;20034;-73
2022/10/13 08:50:14;;;;;;;29.13;11.77;;;20.80;68.40;;;;;;4981741;28;20128;-72
2022/10/13 08:53:06;;;;;;;19.40;11.20;;;20.80;68.60;;;;;;5012402;28;20424;-73
2022/10/13 08:55:40;;;;;;;20.77;11.43;;;20.80;67.40;;;;;;5010932;28;20390;-75
2022/10/13 08:58:16;;;;;;;22.25;10.57;;;20.80;68.80;;;;;;5022746;28;20027;-78
2022/10/13 09:00:41;;;;;;;23.02;11.35;;;20.80;68.20;;;;;;5029008;28;20097;-78
2022/10/13 09:03:22;;;;;;;18.88;10.15;;;20.70;66.10;;;;;;5030692;28;20117;-70
2022/10/13 09:06:02;;;;;;;24.58;10.57;;;20.60;64.50;;;;;;5018483;28;20026;-72
2022/10/13 09:08:36;;;;;;;19.13;9.65;;;20.50;61.30;;;;;;5007227;28;20094;-72
2022/10/13 09:11:02;;;;;;;21.67;10.13;;;20.50;60.80;;;;;;5001640;28;20104;-73
2022/10/13 09:13:28;;;;;;;21.40;10.10;;;20.50;62.30;;;;;;5010823;28;20022;-73
2022/10/13 09:15:57;;;;;;;22.63;10.35;;;20.50;62.70;;;;;;5009220;28;20114;-73
2022/10/13 09:18:30;;;;;;;22.23;10.20;;;20.60;62.90;;;;;;5010535;28;20053;-73
2022/10/13 09:21:20;;;;;;;28.52;11.43;;;20.60;63.10;;;;;;5009976;28;20067;-73
2022/10/13 09:23:49;;;;;;;22.65;11.40;;;20.60;63.10;;;;;;5009063;28;20038;-73
2022/10/13 09:26:23;;;;;;;27.92;10.73;;;20.60;63.00;;;;;;4992658;28;20124;-73
2022/10/13 09:28:50;;;;;;;27.13;11.57;;;20.70;63.10;;;;;;5018349;28;20493;-73
2022/10/13 09:31:25;;;;;;;24.52;10.57;;;20.70;63.20;;;;;;5020656;28;20532;-72
2022/10/13 09:34:11;;;;;;;30.08;11.75;;;20.70;63.30;;;;;;5008493;28;20040;-72
2022/10/13 09:36:37;;;;;;;28.60;12.18;;;20.70;63.30;;;;;;5009093;28;20070;-73
2022/10/13 09:39:07;;;;;;;33.15;14.07;;;20.70;63.60;;;;;;5008386;28;20037;-73
2022/10/13 09:41:35;;;;;;;37.95;14.45;;;20.80;63.90;;;;;;5024460;28;20026;-73
2022/10/13 09:44:13;;;;;;;39.70;13.55;;;20.80;63.90;;;;;;5025201;28;20034;-73
2022/10/13 09:47:03;;;;;;;33.60;13.60;;;20.80;64.00;;;;;;5009300;28;20041;-71
2022/10/13 09:49:34;;;;;;;40.47;15.65;;;20.80;63.80;;;;;;5009578;28;20026;-71
2022/10/13 09:52:17;;;;;;;39.95;15.07;;;20.80;64.00;;;;;;5009226;28;20022;-71
2022/10/13 09:54:46;;;;;;;35.80;14.25;;;20.80;64.00;;;;;;5005672;28;20121;-72
2022/10/13 09:57:12;;;;;;;35.83;13.75;;;20.80;64.00;;;;;;5002719;28;20026;-73
2022/10/13 09:59:43;;;;;;;39.90;14.50;;;20.80;64.20;;;;;;5004713;28;20077;-73
2022/10/13 10:02:23;;;;;;;36.90;14.02;;;20.80;64.10;;;;;;5015703;28;20026;-73
2022/10/13 10:04:51;;;;;;;40.42;14.50;;;20.80;64.00;;;;;;5000937;28;20546;-73
2022/10/13 10:07:22;;;;;;;39.28;14.30;;;20.80;64.00;;;;;;5000604;28;20032;-73
2022/10/13 10:09:52;;;;;;;32.90;13.43;;;20.80;64.00;;;;;;5018164;28;20068;-72
2022/10/13 10:12:22;;;;;;;35.55;13.20;;;20.90;64.10;;;;;;5031529;28;20440;-73
2022/10/13 10:14:49;;;;;;;32.30;13.30;;;20.90;64.00;;;;;;5033567;28;20460;-72
2022/10/13 10:17:26;;;;;;;26.73;12.25;;;20.90;64.60;;;;;;5032732;28;20025;-73
2022/10/13 10:20:22;;;;;;;31.98;12.77;;;20.90;64.00;;;;;;5031692;28;20065;-72
2022/10/13 10:23:11;;;;;;;32.53;13.10;;;20.90;64.00;;;;;;5031645;28;20041;-72
2022/10/13 10:25:43;;;;;;;30.77;12.32;;;20.90;64.00;;;;;;5024050;28;20076;-73
2022/10/13 10:28:32;;;;;;;28.38;12.40;;;20.90;64.00;;;;;;5012769;28;20394;-73
2022/10/13 10:31:16;;;;;;;35.33;12.73;;;20.90;64.00;;;;;;5011685;28;20038;-72
2022/10/13 10:34:12;;;;;;;35.03;12.75;;;21.00;64.00;;;;;;5027934;28;20045;-73
2022/10/13 10:37:03;;;;;;;38.45;13.85;;;20.90;64.00;;;;;;5012881;28;20026;-72
2022/10/13 10:39:41;;;;;;;33.10;14.05;;;20.90;64.10;;;;;;5012078;28;20033;-72
2022/10/13 10:42:46;;;;;;;37.53;12.95;;;21.00;64.40;;;;;;5019228;28;20033;-72
2022/10/13 10:45:33;;;;;;;34.47;13.63;;;21.00;63.70;;;;;;5016774;28;20028;-72
2022/10/13 10:48:03;;;;;;;36.72;12.57;;;21.00;64.10;;;;;;5015235;28;20034;-72
2022/10/13 10:50:30;;;;;;;32.95;12.82;;;21.00;64.30;;;;;;5032560;28;20361;-73
2022/10/13 10:53:11;;;;;;;31.25;13.50;;;21.00;64.10;;;;;;5015562;28;20030;-71
2022/10/13 10:55:42;;;;;;;31.17;14.30;;;21.00;64.30;;;;;;5011923;28;20030;-72
2022/10/13 10:58:17;;;;;;;29.95;12.63;;;20.90;64.40;;;;;;5002449;28;20034;-73
2022/10/13 11:01:15;;;;;;;31.55;12.77;;;21.00;64.40;;;;;;5027886;28;20069;-73
2022/10/13 11:03:49;;;;;;;29.15;12.23;;;21.00;64.50;;;;;;5030616;28;20029;-73
2022/10/13 11:06:15;;;;;;;32.83;12.77;;;21.00;64.40;;;;;;5047147;28;20029;-74
2022/10/13 11:08:45;;;;;;;31.27;13.18;;;21.00;64.40;;;;;;5030587;28;20087;-73
2022/10/13 11:11:24;;;;;;;33.40;13.35;;;21.00;64.50;;;;;;5031796;28;20026;-73
2022/10/13 11:14:18;;;;;;;28.17;12.48;;;21.00;64.40;;;;;;5025929;28;20037;-73
2022/10/13 11:16:57;;;;;;;32.08;13.05;;;21.00;64.50;;;;;;5008028;28;20034;-73
2022/10/13 11:19:33;;;;;;;28.40;12.15;;;21.00;64.40;;;;;;5025147;28;20032;-73
2022/10/13 11:21:59;;;;;;;29.05;12.15;;;21.00;64.50;;;;;;5037338;28;20029;-74
2022/10/13 11:24:40;;;;;;;34.95;13.63;;;21.00;64.40;;;;;;5013900;28;20103;-73
2022/10/13 11:27:14;;;;;;;30.42;13.75;;;20.90;64.40;;;;;;5031326;28;20413;-73
2022/10/13 11:29:47;;;;;;;33.00;13.77;;;21.00;64.40;;;;;;5031533;28;20040;-73
2022/10/13 11:32:25;;;;;;;30.73;13.25;;;21.00;64.40;;;;;;5031460;28;20025;-73
2022/10/13 11:35:09;;;;;;;28.33;12.32;;;20.90;64.40;;;;;;5031291;28;20033;-73
2022/10/13 11:37:57;;;;;;;25.95;12.13;;;20.90;64.40;;;;;;5031087;28;20033;-72
2022/10/13 11:40:24;;;;;;;29.15;12.45;;;21.00;64.50;;;;;;5013548;28;20032;-73
2022/10/13 11:43:08;;;;;;;30.88;12.68;;;21.00;64.50;;;;;;5019185;28;20104;-73
2022/10/13 11:46:21;;;;;;;30.00;11.93;;;21.00;64.50;;;;;;5030926;28;20035;-71
2022/10/13 11:49:09;;;;;;;27.15;11.88;;;20.90;64.40;;;;;;5031232;28;20037;-73
2022/10/13 11:52:23;;;;;;;25.58;11.38;;;21.00;64.50;;;;;;5031425;28;20034;-74
2022/10/13 11:55:17;;;;;;;25.48;11.15;;;21.00;64.50;;;;;;4953104;28;20047;-73
2022/10/13 11:57:44;;;;;;;29.02;12.35;;;21.00;64.40;;;;;;5037070;28;20136;-73
2022/10/13 12:00:16;;;;;;;25.98;11.35;;;20.90;65.50;;;;;;5013492;28;20037;-73
2022/10/13 12:02:52;;;;;;;30.60;11.95;;;21.00;65.80;;;;;;5030241;28;20119;-72
2022/10/13 12:05:27;;;;;;;31.42;11.68;;;21.00;66.00;;;;;;5029044;28;20100;-74
2022/10/13 12:07:59;;;;;;;35.30;13.02;;;21.00;66.20;;;;;;5013569;28;20588;-73
2022/10/13 12:10:36;;;;;;;34.30;12.57;;;21.00;66.50;;;;;;5021688;28;20034;-72
2022/10/13 12:13:06;;;;;;;28.45;11.90;;;21.00;66.50;;;;;;5036139;28;20469;-73
2022/10/13 12:15:34;;;;;;;29.55;12.93;;;21.00;66.60;;;;;;5004380;28;20087;-73
2022/10/13 12:18:01;;;;;;;30.55;13.10;;;21.00;66.60;;;;;;5012149;28;20567;-76
2022/10/13 12:20:31;;;;;;;28.23;11.57;;;20.90;66.50;;;;;;4997381;28;20018;-76
2022/10/13 12:22:57;;;;;;;25.67;11.45;;;20.90;66.60;;;;;;5021621;28;20034;-75
2022/10/13 12:25:27;;;;;;;51.35;31.17;;;20.90;66.70;;;;;;5024292;28;20032;-76
2022/10/13 12:27:59;;;;;;;48.60;25.02;;;20.80;66.40;;;;;;5031060;28;20033;-75
2022/10/13 12:30:36;;;;;;;38.90;22.05;;;20.70;65.90;;;;;;5029954;28;20394;-75
2022/10/13 12:33:16;;;;;;;52.75;19.00;;;20.70;64.90;;;;;;5029170;28;20033;-75
2022/10/13 12:35:42;;;;;;;;;;;20.70;64.80;;;;;;5024131;28;20045;-73
2022/10/13 12:38:17;;;;;;;28.42;16.70;;;20.60;62.80;;;;;;5015322;28;19956;-72
2022/10/13 12:40:45;;;;;;;30.85;15.70;;;20.60;63.40;;;;;;5030328;28;20028;-74
2022/10/13 12:43:17;;;;;;;33.38;16.50;;;20.70;63.10;;;;;;4993597;28;20042;-73
2022/10/13 12:45:47;;;;;;;29.48;15.45;;;20.70;63.20;;;;;;4977333;28;20022;-74
2022/10/13 12:48:34;;;;;;;25.52;14.60;;;20.70;63.90;;;;;;4992571;28;20034;-73